Waldport, OR (97394)

11:00 AM PST on February 12, 2016 (GMT -0800)
Mr.Wizard | | Change Station
CLOSE
Current Station
Personal Weather Station
Location: Waldport, OR
Elevation: 56 ft
Nearby Weather Stations

Elev 56 ft 44.42 °N, 124.08 °W | Updated 18 seconds ago

Fog
Fog
56.5 °F
Feels Like 56.5 °F
N
0.0
Wind Variable Wind from SSE
Gusts 1.0 mph

Today
High -- | Low -- °F
--% Chance of Precip.
Yesterday
High -- | Low -- °F
Precip. -- in
Pressure 30.23 in
Visibility 0.2 miles
Clouds Overcast 200 ft
Dew Point 48 °F
Humidity 74%
Rainfall 0.04 in
Snow Depth Not available.
7:20 AM 5:40 PM
Waxing Crescent, 22% visible
METAR KONP 121855Z AUTO 22009KT 1/4SM FG OVC002 11/11 A3023 RMK AO2
Pressure 30.23 in
Visibility 0.2 miles
Clouds Overcast 200 ft
Dew Point 48 °F
Humidity 74%
Rainfall 0.04 in
Snow Depth Not available.
7:20 AM 5:40 PM
Waxing Crescent, 22% visible
METAR KONP 121855Z AUTO 22009KT 1/4SM FG OVC002 11/11 A3023 RMK AO2

10-Day Weather Forecast

Almanac

Astronomy

Feb. 12, 2016 Rise Set
Actual Time
Civil Twilight
Nautical Twilight
Astronomical Twilight
Moon
Length of Visible Light
Length of Day
Tomorrow will be .
, % of the Moon is Illuminated

Today's Extremes

State Highs State Lows

Community

WunderPhotos

Upload Photos

1,892,369 photos uploaded!

WunderBlog® & News

Nearby

Air Quality

  Air Quality AQ Index Pollutant
Not available.

Snow Depth

Station Depth Elevation

Earthquake Activity

City Distance Mag. Time & Date
Minimum magnitude displayed is 2.5.

Coastal Water Temperatures

Place Temperature

Stations

Nearby Weather Stations

Station Location Temp. Windchill Dew Point Humidity Wind Precip. Elev Updated Type
                   

Watches & Warnings

There are currently no watches in effect.